createdAt,value
2018-07-04T00:01:58.721Z,17.50
2018-07-04T00:04:38.608Z,17.50
2018-07-04T00:07:18.631Z,17.60
2018-07-04T00:09:58.388Z,17.60
2018-07-04T00:12:39.211Z,17.40
2018-07-04T00:17:53.206Z,17.50
2018-07-04T00:20:38.502Z,17.50
2018-07-04T00:23:18.472Z,17.50
2018-07-04T00:25:58.143Z,17.50
2018-07-04T00:28:38.181Z,17.40
2018-07-04T00:33:52.204Z,17.50
2018-07-04T00:36:32.112Z,17.40
2018-07-04T00:39:12.180Z,17.40
2018-07-04T00:41:52.154Z,17.40
2018-07-04T00:44:32.507Z,17.50
2018-07-04T00:47:12.340Z,17.40
2018-07-04T00:49:52.288Z,17.50
2018-07-04T00:52:32.741Z,17.50
2018-07-04T00:55:12.705Z,17.50
2018-07-04T00:57:52.772Z,17.50
2018-07-04T01:00:33.541Z,17.50
2018-07-04T01:03:13.604Z,17.50
2018-07-04T01:05:53.329Z,17.40
2018-07-04T01:08:34.211Z,17.40
2018-07-04T01:11:14.265Z,17.30
2018-07-04T01:13:54.094Z,17.40
2018-07-04T01:16:33.809Z,17.30
2018-07-04T01:19:13.770Z,17.40
2018-07-04T01:21:53.861Z,17.50
2018-07-04T01:24:33.680Z,17.50
2018-07-04T01:27:13.661Z,17.50
2018-07-04T01:29:53.803Z,17.50
2018-07-04T01:32:34.219Z,17.50
2018-07-04T01:35:14.268Z,17.40
2018-07-04T01:37:54.230Z,17.30
2018-07-04T01:40:34.128Z,17.40
2018-07-04T01:43:14.075Z,17.30
2018-07-04T01:45:53.880Z,17.30
2018-07-04T01:48:33.850Z,17.30
2018-07-04T01:51:13.741Z,17.20
2018-07-04T01:53:54.721Z,17.20
2018-07-04T01:59:08.664Z,16.90
2018-07-04T02:01:49.443Z,16.70
2018-07-04T02:07:03.152Z,16.90
2018-07-04T02:09:43.142Z,16.90
2018-07-04T02:12:22.868Z,16.90
2018-07-04T02:15:03.714Z,17.00
2018-07-04T02:17:43.617Z,17.00
2018-07-04T02:22:58.156Z,17.00
2018-07-04T02:25:37.991Z,17.00
2018-07-04T02:28:17.819Z,17.00
2018-07-04T02:30:57.588Z,17.00
2018-07-04T02:33:37.595Z,16.90
2018-07-04T02:36:17.778Z,16.80
2018-07-04T02:38:57.703Z,16.90
2018-07-04T02:41:37.699Z,16.90
2018-07-04T02:44:17.593Z,17.00
2018-07-04T02:46:58.329Z,16.90
2018-07-04T02:49:38.238Z,17.00
2018-07-04T02:52:17.994Z,17.00
2018-07-04T02:54:57.925Z,17.00
2018-07-04T02:57:37.836Z,17.00
2018-07-04T03:02:53.196Z,17.00
2018-07-04T03:05:33.350Z,16.90
2018-07-04T03:08:13.266Z,16.90
2018-07-04T03:10:53.245Z,16.90
2018-07-04T03:13:33.371Z,16.90
2018-07-04T03:16:13.331Z,16.90
2018-07-04T03:18:53.299Z,16.80
2018-07-04T03:21:33.145Z,16.90
2018-07-04T03:24:12.945Z,16.80
2018-07-04T03:26:52.809Z,16.80
2018-07-04T03:29:32.913Z,16.80
2018-07-04T03:32:13.534Z,16.70
2018-07-04T03:34:53.503Z,16.70
2018-07-04T03:37:33.393Z,16.70
2018-07-04T03:40:13.282Z,16.70
2018-07-04T03:42:53.120Z,16.80
2018-07-04T03:45:33.807Z,16.60
2018-07-04T03:48:13.729Z,16.50
2018-07-04T03:50:53.529Z,16.40
2018-07-04T03:53:33.401Z,16.40
2018-07-04T03:56:13.576Z,16.50
2018-07-04T03:58:53.643Z,16.50
2018-07-04T04:01:34.004Z,16.40
2018-07-04T04:04:14.623Z,16.30
2018-07-04T04:09:29.350Z,16.40
2018-07-04T04:12:09.346Z,16.40
2018-07-04T04:17:22.991Z,15.90
2018-07-04T04:22:37.119Z,15.60
2018-07-04T04:25:17.246Z,15.60
2018-07-04T04:27:57.627Z,15.50
2018-07-04T04:30:37.618Z,15.50
2018-07-04T04:33:17.511Z,15.60
2018-07-04T04:35:57.336Z,15.70
2018-07-04T04:38:38.203Z,15.70
2018-07-04T04:41:18.506Z,15.80
2018-07-04T04:43:58.492Z,15.80
2018-07-04T04:46:39.370Z,15.80
2018-07-04T04:51:53.954Z,15.90
2018-07-04T04:54:33.907Z,16.10
2018-07-04T05:02:22.661Z,16.20
2018-07-04T05:05:02.538Z,16.20
2018-07-04T05:07:42.729Z,16.30
2018-07-04T05:10:23.710Z,16.50
2018-07-04T05:13:03.863Z,16.50
2018-07-04T05:15:44.259Z,16.60
2018-07-04T05:18:24.456Z,16.60
2018-07-04T05:21:04.731Z,16.60
2018-07-04T05:23:45.092Z,16.60
2018-07-04T05:26:25.118Z,16.70
2018-07-04T05:29:05.329Z,16.80
2018-07-04T05:31:45.461Z,16.90
2018-07-04T05:34:25.420Z,17.00
2018-07-04T05:37:05.581Z,16.90
2018-07-04T05:39:45.556Z,17.00
2018-07-04T05:45:00.151Z,17.10
2018-07-04T05:47:40.053Z,17.10
2018-07-04T05:50:20.584Z,17.10
2018-07-04T05:53:00.517Z,17.00
2018-07-04T05:55:40.476Z,16.90
2018-07-04T05:58:21.260Z,16.90
2018-07-04T06:01:01.467Z,16.90
2018-07-04T06:03:41.840Z,16.90
2018-07-04T06:06:21.891Z,16.90
2018-07-04T06:09:01.821Z,16.90
2018-07-04T06:14:15.849Z,17.10
2018-07-04T06:16:56.312Z,17.10
2018-07-04T06:19:36.229Z,17.20
2018-07-04T06:22:16.154Z,17.20
2018-07-04T06:24:56.250Z,17.20
2018-07-04T06:27:36.319Z,17.30
2018-07-04T06:30:16.373Z,17.40
2018-07-04T06:32:56.363Z,17.30
2018-07-04T06:35:36.145Z,17.30
2018-07-04T06:38:03.940Z,17.40
2018-07-04T06:40:31.472Z,17.40
2018-07-04T06:42:59.100Z,17.40
2018-07-04T06:45:26.653Z,17.50
2018-07-04T06:47:54.454Z,17.60
2018-07-04T06:50:22.621Z,17.50
2018-07-04T06:52:50.136Z,17.50
2018-07-04T06:57:46.201Z,17.60
2018-07-04T07:00:13.801Z,17.60
2018-07-04T07:02:41.360Z,17.60
2018-07-04T07:05:21.574Z,17.70
2018-07-04T07:08:01.853Z,17.70
2018-07-04T07:10:42.090Z,17.80
2018-07-04T07:13:22.164Z,17.90
2018-07-04T07:16:02.310Z,18.00
2018-07-04T07:18:42.471Z,17.90
2018-07-04T07:21:22.622Z,17.90
2018-07-04T07:24:03.471Z,18.00
2018-07-04T07:26:43.745Z,18.00
2018-07-04T07:29:23.899Z,18.10
2018-07-04T07:32:04.063Z,18.20
2018-07-04T07:34:44.309Z,18.20
2018-07-04T07:37:24.774Z,18.20
2018-07-04T07:40:04.726Z,18.20
2018-07-04T07:42:45.051Z,18.10
2018-07-04T07:45:25.342Z,18.20
2018-07-04T07:48:05.560Z,18.20
2018-07-04T07:50:46.061Z,18.20
2018-07-04T07:53:26.313Z,18.20
2018-07-04T07:56:06.572Z,18.40
2018-07-04T07:58:46.971Z,18.40
2018-07-04T08:01:27.182Z,18.40
2018-07-04T08:04:07.643Z,18.50
2018-07-04T08:06:47.903Z,18.50
2018-07-04T08:09:28.061Z,18.50
2018-07-04T08:12:09.230Z,18.60
2018-07-04T08:14:49.384Z,18.80
2018-07-04T08:17:29.643Z,18.80
2018-07-04T08:20:09.901Z,18.80
2018-07-04T08:22:50.067Z,18.90
2018-07-04T08:25:30.373Z,18.90
2018-07-04T08:28:10.571Z,19.00
2018-07-04T08:30:50.925Z,19.10
2018-07-04T08:33:31.080Z,19.20
2018-07-04T08:36:11.231Z,19.30
2018-07-04T08:38:51.625Z,19.40
2018-07-04T08:41:31.758Z,19.60
2018-07-04T08:44:11.901Z,19.70
2018-07-04T08:46:52.162Z,19.70
2018-07-04T08:49:32.517Z,19.80
2018-07-04T08:52:12.770Z,19.80
2018-07-04T08:54:52.928Z,20.00
2018-07-04T08:57:33.184Z,20.00
2018-07-04T09:00:13.335Z,20.00
2018-07-04T09:02:54.181Z,20.10
2018-07-04T09:05:34.498Z,20.20
2018-07-04T09:08:14.349Z,20.30
2018-07-04T09:10:55.283Z,20.50
2018-07-04T09:13:35.650Z,20.70
2018-07-04T09:16:15.900Z,20.90
2018-07-04T09:18:56.161Z,21.10
2018-07-04T09:21:36.181Z,21.20
2018-07-04T09:24:16.263Z,21.20
2018-07-04T09:26:56.624Z,21.40
2018-07-04T09:29:36.976Z,21.40
2018-07-04T09:32:17.091Z,21.60
2018-07-04T09:34:57.128Z,21.60
2018-07-04T09:40:11.753Z,21.80
2018-07-04T09:42:52.010Z,22.00
2018-07-04T09:45:32.187Z,22.20
2018-07-04T09:48:13.137Z,22.10
2018-07-04T09:50:53.258Z,22.30
2018-07-04T09:56:07.721Z,22.40
2018-07-04T09:58:47.935Z,22.60
2018-07-04T10:04:02.949Z,22.80
2018-07-04T10:09:16.963Z,23.00
2018-07-04T10:11:57.219Z,23.00
2018-07-04T10:14:38.461Z,23.10
2018-07-04T10:19:52.668Z,23.30
2018-07-04T10:22:32.832Z,23.30
2018-07-04T10:25:13.183Z,23.30
2018-07-04T10:27:53.231Z,23.30
2018-07-04T10:30:33.379Z,23.20
2018-07-04T10:33:13.871Z,23.20
2018-07-04T10:35:53.970Z,23.10
2018-07-04T10:38:34.034Z,23.10
2018-07-04T10:41:14.002Z,23.00
2018-07-04T10:43:56.822Z,23.00
2018-07-04T10:46:37.068Z,22.90
2018-07-04T10:49:17.100Z,22.90
2018-07-04T10:51:57.070Z,23.00
2018-07-04T10:54:37.331Z,23.10
2018-07-04T10:57:17.484Z,23.10
2018-07-04T10:59:57.640Z,23.20
2018-07-04T11:02:37.992Z,23.10
2018-07-04T11:05:18.352Z,23.20
2018-07-04T11:07:59.070Z,23.20
2018-07-04T11:13:13.184Z,23.20
2018-07-04T11:15:54.158Z,23.20
2018-07-04T11:18:34.388Z,23.30
2018-07-04T11:21:14.651Z,23.50
2018-07-04T11:23:55.957Z,23.80
2018-07-04T11:26:36.111Z,24.10
2018-07-04T11:29:16.259Z,24.30
2018-07-04T11:31:56.373Z,24.50
2018-07-04T11:34:36.473Z,24.60
2018-07-04T11:37:16.473Z,24.80
2018-07-04T11:42:30.783Z,25.00
2018-07-04T11:45:10.940Z,25.20
2018-07-04T11:47:38.660Z,25.40
2018-07-04T11:50:06.470Z,25.50
2018-07-04T11:52:34.193Z,25.40
2018-07-04T11:55:02.013Z,25.50
2018-07-04T11:57:29.720Z,25.70
2018-07-04T11:59:57.420Z,25.70
2018-07-04T12:02:25.165Z,25.80
2018-07-04T12:05:05.441Z,25.80
2018-07-04T12:07:33.183Z,25.90
2018-07-04T12:10:01.493Z,25.90
2018-07-04T12:12:29.188Z,26.00
2018-07-04T12:17:24.975Z,26.10
2018-07-04T12:19:52.731Z,26.10
2018-07-04T12:22:20.601Z,26.00
2018-07-04T12:24:48.258Z,26.00
2018-07-04T12:27:16.701Z,26.10
2018-07-04T12:29:44.509Z,26.20
2018-07-04T12:32:12.032Z,26.10
2018-07-04T12:34:40.477Z,26.20
2018-07-04T12:37:08.103Z,26.20
2018-07-04T12:39:35.653Z,26.30
2018-07-04T12:42:03.315Z,26.30
2018-07-04T12:44:30.935Z,26.40
2018-07-04T12:49:27.663Z,26.60
2018-07-04T12:51:55.580Z,26.70
2018-07-04T12:54:28.402Z,26.70
2018-07-04T12:57:09.054Z,26.80
2018-07-04T12:59:49.314Z,27.00
2018-07-04T13:02:29.571Z,27.00
2018-07-04T13:05:10.433Z,27.00
2018-07-04T13:07:50.589Z,27.00
2018-07-04T13:10:30.970Z,27.00
2018-07-04T13:13:11.211Z,27.10
2018-07-04T13:15:51.361Z,27.10
2018-07-04T13:18:32.104Z,27.10
2018-07-04T13:21:12.179Z,27.30
2018-07-04T13:23:52.009Z,27.40
2018-07-04T13:26:32.031Z,27.50
2018-07-04T13:31:46.452Z,27.50
2018-07-04T13:34:26.302Z,27.60
2018-07-04T13:37:06.549Z,27.60
2018-07-04T13:39:47.020Z,27.70
2018-07-04T13:42:27.133Z,27.70
2018-07-04T13:45:07.269Z,27.80
2018-07-04T13:50:21.381Z,27.90
2018-07-04T13:53:02.361Z,27.90
2018-07-04T13:55:42.641Z,27.90
2018-07-04T13:58:22.661Z,28.00
2018-07-04T14:01:02.820Z,28.00
2018-07-04T14:03:43.030Z,27.90
2018-07-04T14:06:23.481Z,27.90
2018-07-04T14:11:37.798Z,28.00
2018-07-04T14:14:18.063Z,28.10
2018-07-04T14:16:58.421Z,28.20
2018-07-04T14:19:38.682Z,28.30
2018-07-04T14:22:19.132Z,28.30
2018-07-04T14:24:59.291Z,28.30
2018-07-04T14:27:39.930Z,28.30
2018-07-04T14:30:19.710Z,28.30
2018-07-04T14:32:59.955Z,28.40
2018-07-04T14:35:39.924Z,28.60
2018-07-04T14:38:19.930Z,28.60
2018-07-04T14:40:59.977Z,28.70
2018-07-04T14:43:39.960Z,28.70
2018-07-04T14:46:20.008Z,28.60
2018-07-04T14:49:01.301Z,28.40
2018-07-04T14:51:41.439Z,28.30
2018-07-04T14:54:21.595Z,28.10
2018-07-04T14:57:02.881Z,27.90
2018-07-04T14:59:43.027Z,27.70
2018-07-04T15:02:23.262Z,27.40
2018-07-04T15:05:03.550Z,27.40
2018-07-04T15:07:43.902Z,27.20
2018-07-04T15:10:24.454Z,27.10
2018-07-04T15:13:04.411Z,27.10
2018-07-04T15:15:44.340Z,27.00
2018-07-04T15:18:24.417Z,26.90
2018-07-04T15:21:04.441Z,26.90
2018-07-04T15:23:44.302Z,26.80
2018-07-04T15:26:24.609Z,26.80
2018-07-04T15:29:04.618Z,26.80
2018-07-04T15:31:44.556Z,26.70
2018-07-04T15:34:24.389Z,26.60
2018-07-04T15:37:04.306Z,26.40
2018-07-04T15:39:44.298Z,26.40
2018-07-04T15:42:24.193Z,26.30
2018-07-04T15:45:04.322Z,26.20
2018-07-04T15:47:44.474Z,26.20
2018-07-04T15:50:24.731Z,26.20
2018-07-04T15:53:05.393Z,26.10
2018-07-04T15:55:45.499Z,26.10
2018-07-04T16:01:00.313Z,25.90
2018-07-04T16:03:40.082Z,25.90
2018-07-04T16:06:19.862Z,26.00
2018-07-04T16:08:59.832Z,25.90
2018-07-04T16:11:39.918Z,25.90
2018-07-04T16:14:20.520Z,25.90
2018-07-04T16:17:00.443Z,25.90
2018-07-04T16:19:40.371Z,25.90
2018-07-04T16:22:20.538Z,25.90
2018-07-04T16:25:01.008Z,25.90
2018-07-04T16:27:40.972Z,25.90
2018-07-04T16:30:21.716Z,25.90
2018-07-04T16:33:01.994Z,25.80
2018-07-04T16:35:42.232Z,25.70
2018-07-04T16:38:22.175Z,25.80
2018-07-04T16:41:02.031Z,25.70
2018-07-04T16:43:41.992Z,25.70
2018-07-04T16:46:22.452Z,25.80
2018-07-04T16:49:02.272Z,25.90
2018-07-04T16:51:42.374Z,25.90
2018-07-04T16:54:22.368Z,25.90
2018-07-04T16:57:02.252Z,26.10
2018-07-04T16:59:42.173Z,26.20
2018-07-04T17:02:22.350Z,26.30
2018-07-04T17:05:02.206Z,26.50
2018-07-04T17:07:42.112Z,26.60
2018-07-04T17:10:22.286Z,26.80
2018-07-04T17:13:02.442Z,26.70
2018-07-04T17:15:42.458Z,26.70
2018-07-04T17:18:22.542Z,26.70
2018-07-04T17:21:02.381Z,26.60
2018-07-04T17:23:42.379Z,26.40
2018-07-04T17:26:22.160Z,26.30
2018-07-04T17:29:02.822Z,26.20
2018-07-04T17:31:42.539Z,26.20
2018-07-04T17:36:56.292Z,26.10
2018-07-04T17:39:36.219Z,26.00
2018-07-04T17:42:16.849Z,25.90
2018-07-04T17:44:56.772Z,25.90
2018-07-04T17:47:36.664Z,25.80
2018-07-04T17:50:17.635Z,25.70
2018-07-04T17:52:57.718Z,25.60
2018-07-04T17:55:46.012Z,25.60
2018-07-04T17:58:26.902Z,25.50
2018-07-04T18:01:09.118Z,25.40
2018-07-04T18:03:49.705Z,25.40
2018-07-04T18:06:29.694Z,25.30
2018-07-04T18:09:09.535Z,25.20
2018-07-04T18:11:49.473Z,25.20
2018-07-04T18:14:29.461Z,25.10
2018-07-04T18:17:09.710Z,24.90
2018-07-04T18:19:50.461Z,24.60
2018-07-04T18:22:30.871Z,24.20
2018-07-04T18:25:12.500Z,23.90
2018-07-04T18:27:52.406Z,24.00
2018-07-04T18:30:32.301Z,23.90
2018-07-04T18:33:12.244Z,23.70
2018-07-04T18:35:52.285Z,23.60
2018-07-04T18:41:07.182Z,23.60
2018-07-04T18:43:47.010Z,23.50
2018-07-04T18:49:01.489Z,23.30
2018-07-04T18:51:41.500Z,23.20
2018-07-04T18:54:21.841Z,23.10
2018-07-04T18:57:01.671Z,23.00
2018-07-04T18:59:41.849Z,22.90
2018-07-04T19:02:22.209Z,22.90
2018-07-04T19:05:02.449Z,22.60
2018-07-04T19:07:42.383Z,22.30
2018-07-04T19:10:23.401Z,22.20
2018-07-04T19:13:03.633Z,22.20
2018-07-04T19:15:43.850Z,22.10
2018-07-04T19:18:24.762Z,21.90
2018-07-04T19:21:05.120Z,21.90
2018-07-04T19:23:45.888Z,21.80
2018-07-04T19:26:25.900Z,21.80
2018-07-04T19:29:05.958Z,21.80
2018-07-04T19:31:46.766Z,21.80
2018-07-04T19:34:26.559Z,21.60
2018-07-04T19:39:40.570Z,21.60
2018-07-04T19:42:21.017Z,21.70
2018-07-04T19:45:01.299Z,21.60
2018-07-04T19:47:43.248Z,21.60
2018-07-04T19:50:23.435Z,21.30
2018-07-04T19:53:03.764Z,21.20
2018-07-04T19:55:43.768Z,21.20
2018-07-04T19:58:24.001Z,21.20
2018-07-04T20:01:03.959Z,21.20
2018-07-04T20:03:43.847Z,21.30
2018-07-04T20:08:58.209Z,20.90
2018-07-04T20:11:38.183Z,20.80
2018-07-04T20:14:18.140Z,20.70
2018-07-04T20:16:58.229Z,20.70
2018-07-04T20:19:38.147Z,20.80
2018-07-04T20:22:18.325Z,20.90
2018-07-04T20:24:58.391Z,21.00
2018-07-04T20:27:38.343Z,21.10
2018-07-04T20:30:18.299Z,21.10
2018-07-04T20:32:58.232Z,21.00
2018-07-04T20:35:38.191Z,20.90
2018-07-04T20:38:18.092Z,20.80
2018-07-04T20:40:58.276Z,20.60
2018-07-04T20:43:38.527Z,20.50
2018-07-04T20:46:19.517Z,20.20
2018-07-04T20:48:59.691Z,20.00
2018-07-04T20:51:39.981Z,19.90
2018-07-04T20:54:20.481Z,19.80
2018-07-04T20:57:00.781Z,19.90
2018-07-04T21:04:49.525Z,19.70
2018-07-04T21:07:29.742Z,19.40
2018-07-04T21:10:10.141Z,19.40
2018-07-04T21:12:50.902Z,19.50
2018-07-04T21:15:30.954Z,19.60
2018-07-04T21:18:11.157Z,19.60
2018-07-04T21:23:24.857Z,19.40
2018-07-04T21:26:05.020Z,19.20
2018-07-04T21:28:45.168Z,19.20
2018-07-04T21:31:25.271Z,19.00
2018-07-04T21:34:05.175Z,19.00
2018-07-04T21:36:45.078Z,18.90
2018-07-04T21:41:59.023Z,19.00
2018-07-04T21:44:38.840Z,19.00
2018-07-04T21:47:18.693Z,19.10
2018-07-04T21:49:58.818Z,19.00
2018-07-04T21:52:38.880Z,18.70
2018-07-04T21:55:18.893Z,18.80
2018-07-04T21:57:58.991Z,18.90
2018-07-04T22:00:39.039Z,18.90
2018-07-04T22:03:19.036Z,18.90
2018-07-04T22:08:33.432Z,19.00
2018-07-04T22:11:13.707Z,19.00
2018-07-04T22:13:53.967Z,19.00
2018-07-04T22:16:34.924Z,18.90
2018-07-04T22:19:15.193Z,19.00
2018-07-04T22:21:55.461Z,18.90
2018-07-04T22:24:35.501Z,18.80
2018-07-04T22:27:15.759Z,18.50
2018-07-04T22:29:55.920Z,18.30
2018-07-04T22:32:36.169Z,18.00
2018-07-04T22:35:16.120Z,17.80
2018-07-04T22:37:56.017Z,17.80
2018-07-04T22:43:10.621Z,18.10
2018-07-04T22:45:50.665Z,18.20
2018-07-04T22:48:31.231Z,18.30
2018-07-04T22:51:11.213Z,18.30
2018-07-04T22:53:51.364Z,17.90
2018-07-04T22:56:31.620Z,17.60
2018-07-04T22:59:11.769Z,17.50
2018-07-04T23:01:52.129Z,17.40
2018-07-04T23:04:32.391Z,17.50
2018-07-04T23:07:13.564Z,17.50
2018-07-04T23:09:53.624Z,17.40
2018-07-04T23:12:33.976Z,17.50
2018-07-04T23:15:14.128Z,17.50
2018-07-04T23:17:54.183Z,17.50
2018-07-04T23:20:34.740Z,17.40
2018-07-04T23:23:14.901Z,17.50
2018-07-04T23:25:54.584Z,17.60
2018-07-04T23:28:34.493Z,17.60
2018-07-04T23:31:14.553Z,17.50
2018-07-04T23:33:54.413Z,17.40
2018-07-04T23:36:34.643Z,17.40
2018-07-04T23:39:14.907Z,16.90
2018-07-04T23:41:54.991Z,16.90
2018-07-04T23:44:34.886Z,17.00
2018-07-04T23:47:14.718Z,17.00
2018-07-04T23:49:55.114Z,17.10
2018-07-04T23:52:35.856Z,17.10
2018-07-04T23:55:15.826Z,17.00
2018-07-04T23:57:55.722Z,16.90
